Time;durP1;ratioP1;P1;durP2;ratioP2;P2;SDS_P1;SDS_P2;PMS_P1;PMS_P2;Temp;Humidity;BMP_temperature;BMP_pressure;BME280_temperature;BME280_humidity;BME280_pressure;Samples;Min_cycle;Max_cycle;Signal;HPM_P1;HPM_P2
2023/01/21 00:01:05;;;;;;;71.93;30.33;;;-1.40;99.90;;;;;;5070806;28;20024;-54
2023/01/21 00:03:32;;;;;;;69.75;33.88;;;-1.20;99.90;;;;;;5071349;28;20431;-53
2023/01/21 00:05:57;;;;;;;78.45;33.75;;;-1.20;99.90;;;;;;5070732;28;20521;-55
2023/01/21 00:08:24;;;;;;;71.57;30.77;;;-1.10;99.90;;;;;;5071204;28;20108;-53
2023/01/21 00:10:49;;;;;;;69.07;30.67;;;-1.10;99.90;;;;;;5071278;28;20119;-55
2023/01/21 00:13:15;;;;;;;67.93;32.65;;;-1.10;99.90;;;;;;5071001;28;20134;-53
2023/01/21 00:15:40;;;;;;;79.00;35.15;;;-1.00;99.90;;;;;;5064601;28;20033;-53
2023/01/21 00:18:06;;;;;;;64.55;29.67;;;-0.90;99.90;;;;;;5054609;28;20024;-53
2023/01/21 00:20:32;;;;;;;67.30;31.80;;;-0.90;99.90;;;;;;5070353;28;20521;-54
2023/01/21 00:22:58;;;;;;;74.35;32.97;;;-0.80;99.90;;;;;;5070593;28;20477;-51
2023/01/21 00:25:23;;;;;;;67.43;29.95;;;-0.80;99.90;;;;;;5070707;28;20029;-54
2023/01/21 00:27:49;;;;;;;63.55;30.13;;;-0.80;99.90;;;;;;5071065;28;20039;-54
2023/01/21 00:30:14;;;;;;;66.97;30.77;;;-0.70;99.90;;;;;;5070879;28;20421;-53
2023/01/21 00:32:40;;;;;;;62.83;30.63;;;-0.70;99.90;;;;;;5069372;28;20035;-54
2023/01/21 00:35:06;;;;;;;65.30;28.48;;;-0.70;99.90;;;;;;5070434;28;20020;-52
2023/01/21 00:37:32;;;;;;;64.65;28.23;;;-0.60;99.90;;;;;;5070550;28;20401;-54
2023/01/21 00:39:57;;;;;;;57.63;28.30;;;-0.60;99.90;;;;;;5069260;28;20021;-53
2023/01/21 00:42:23;;;;;;;65.72;29.58;;;-0.50;99.90;;;;;;5070747;28;20116;-53
2023/01/21 00:44:48;;;;;;;66.03;28.20;;;-0.50;99.90;;;;;;5070200;28;20398;-51
2023/01/21 00:47:14;;;;;;;65.07;27.92;;;-0.50;99.90;;;;;;5054810;28;20028;-50
2023/01/21 00:49:39;;;;;;;70.55;29.33;;;-0.40;99.90;;;;;;5062302;28;20033;-53
2023/01/21 00:52:05;;;;;;;68.55;30.55;;;-0.40;99.90;;;;;;5070101;28;20404;-51
2023/01/21 00:54:31;;;;;;;65.97;29.20;;;-0.30;99.90;;;;;;5069990;28;20517;-51
2023/01/21 00:56:59;;;;;;;63.13;28.45;;;-0.30;99.90;;;;;;5070345;28;20020;-53
2023/01/21 00:59:27;;;;;;;63.05;28.80;;;-0.30;99.90;;;;;;5070777;28;20529;-54
2023/01/21 01:01:56;;;;;;;65.60;28.98;;;-0.30;99.90;;;;;;5068752;28;20286;-52
2023/01/21 01:04:22;;;;;;;70.45;30.92;;;-0.20;99.90;;;;;;5070441;28;20020;-50
2023/01/21 01:06:47;;;;;;;62.97;27.27;;;-0.20;99.90;;;;;;5069012;28;20023;-53
2023/01/21 01:09:13;;;;;;;62.80;28.33;;;-0.20;99.90;;;;;;5069961;28;20025;-53
2023/01/21 01:11:39;;;;;;;67.40;28.23;;;-0.10;99.90;;;;;;5069793;28;20028;-51
2023/01/21 01:14:04;;;;;;;64.82;30.20;;;-0.20;99.90;;;;;;5069611;28;20020;-49
2023/01/21 01:16:30;;;;;;;67.38;29.40;;;-0.10;99.90;;;;;;5054358;28;20025;-52
2023/01/21 01:18:56;;;;;;;69.22;29.17;;;-0.10;99.90;;;;;;5061878;28;20020;-52
2023/01/21 01:21:22;;;;;;;68.40;28.27;;;-0.10;99.90;;;;;;5069767;28;20103;-53
2023/01/21 01:23:50;;;;;;;69.22;30.70;;;-0.10;99.90;;;;;;5069930;28;20112;-52
2023/01/21 01:26:18;;;;;;;70.45;29.95;;;-0.10;99.90;;;;;;5069310;28;20053;-53
2023/01/21 01:28:44;;;;;;;65.07;28.83;;;-0.10;99.90;;;;;;5052842;28;20083;-51
2023/01/21 01:31:13;;;;;;;69.65;29.48;;;-0.10;99.90;;;;;;5049604;28;20028;-52
2023/01/21 01:33:39;;;;;;;66.95;28.77;;;0.00;99.90;;;;;;5043195;28;20583;-53
2023/01/21 01:36:07;;;;;;;67.07;30.23;;;0.00;99.90;;;;;;5048754;28;20056;-51
2023/01/21 01:38:36;;;;;;;64.85;28.45;;;0.00;99.90;;;;;;5049510;28;20031;-53
2023/01/21 01:41:02;;;;;;;71.22;30.17;;;0.00;99.90;;;;;;5049867;28;20045;-52
2023/01/21 01:43:57;;;;;;;67.50;27.98;;;0.00;99.90;;;;;;5049652;28;20069;-50
2023/01/21 01:46:28;;;;;;;67.10;26.52;;;0.10;99.90;;;;;;5043004;28;20018;-53
2023/01/21 01:49:07;;;;;;;57.38;26.80;;;0.10;99.90;;;;;;5060881;28;20013;-52
2023/01/21 01:51:39;;;;;;;70.47;29.08;;;0.20;99.90;;;;;;5069282;28;20093;-51
2023/01/21 01:54:06;;;;;;;59.53;26.00;;;0.10;99.90;;;;;;5067756;28;20500;-51
2023/01/21 01:56:34;;;;;;;62.17;28.40;;;0.20;99.90;;;;;;5068785;28;20013;-53
2023/01/21 01:58:59;;;;;;;60.70;27.00;;;0.20;99.90;;;;;;5069084;28;20508;-50
2023/01/21 02:01:25;;;;;;;61.60;27.27;;;0.20;99.90;;;;;;5069037;28;20028;-51
2023/01/21 02:03:58;;;;;;;63.88;25.25;;;0.20;99.90;;;;;;5069397;28;20039;-53
2023/01/21 02:06:24;;;;;;;58.28;25.48;;;0.20;99.90;;;;;;5068695;28;20020;-53
2023/01/21 02:08:50;;;;;;;53.17;24.50;;;0.20;99.90;;;;;;5067775;28;20027;-52
2023/01/21 02:11:18;;;;;;;51.85;21.77;;;0.30;99.90;;;;;;5068986;28;20056;-51
2023/01/21 02:13:48;;;;;;;53.72;24.88;;;0.20;99.90;;;;;;5068685;28;20428;-53
2023/01/21 02:16:29;;;;;;;52.58;23.05;;;0.30;99.90;;;;;;5053274;28;20495;-54
2023/01/21 02:19:20;;;;;;;53.05;23.08;;;0.30;99.90;;;;;;5059882;28;20024;-53
2023/01/21 02:21:56;;;;;;;;;;;0.30;99.90;;;;;;5069525;28;20028;-51
2023/01/21 02:24:53;;;;;;;55.88;23.98;;;0.30;99.90;;;;;;5068716;28;20238;-55
2023/01/21 02:27:38;;;;;;;58.90;24.73;;;0.30;99.90;;;;;;5067715;28;20075;-53
2023/01/21 02:30:22;;;;;;;53.97;23.20;;;0.40;99.90;;;;;;5068827;28;20015;-51
2023/01/21 02:33:19;;;;;;;55.85;24.58;;;0.40;99.90;;;;;;5068414;28;20029;-53
2023/01/21 02:35:44;;;;;;;48.42;22.83;;;0.40;99.90;;;;;;5068455;28;20017;-53
2023/01/21 02:38:45;;;;;;;53.25;22.63;;;0.40;99.90;;;;;;5068309;28;20416;-52
2023/01/21 02:41:49;;;;;;;50.42;22.98;;;0.40;99.90;;;;;;5064437;28;20036;-51
2023/01/21 02:44:32;;;;;;;58.20;23.75;;;0.40;99.90;;;;;;5068456;28;20294;-52
2023/01/21 02:47:09;;;;;;;54.60;23.73;;;0.40;99.90;;;;;;5052991;28;20032;-50
2023/01/21 02:49:45;;;;;;;48.05;22.05;;;0.40;99.90;;;;;;5059915;28;20082;-51
2023/01/21 02:52:19;;;;;;;50.65;23.33;;;0.40;99.90;;;;;;5068383;28;20033;-52
2023/01/21 02:54:48;;;;;;;56.50;24.70;;;0.40;99.90;;;;;;5066692;28;20474;-52
2023/01/21 02:57:22;;;;;;;44.58;22.13;;;0.40;99.90;;;;;;5068331;28;20122;-50
2023/01/21 02:59:52;;;;;;;48.92;22.35;;;0.40;99.90;;;;;;5067185;28;20013;-53
2023/01/21 03:02:35;;;;;;;52.00;22.40;;;0.40;99.90;;;;;;5067958;28;20031;-52
2023/01/21 03:05:23;;;;;;;54.03;21.77;;;0.40;99.90;;;;;;5067616;28;20541;-50
2023/01/21 03:07:55;;;;;;;49.75;22.48;;;0.50;99.90;;;;;;5068234;28;20119;-52
2023/01/21 03:10:30;;;;;;;42.67;20.35;;;0.50;99.90;;;;;;5057131;28;20091;-53
2023/01/21 03:19:10;;;;;;;35.95;17.25;;;0.50;99.90;;;;;;5060080;28;20277;-51
2023/01/21 03:21:36;;;;;;;46.50;19.48;;;0.50;99.90;;;;;;5068265;28;20016;-54
2023/01/21 03:24:02;;;;;;;41.33;19.20;;;0.50;99.90;;;;;;5065935;28;20489;-52
2023/01/21 03:26:35;;;;;;;41.55;19.58;;;0.60;99.90;;;;;;5036632;28;20083;-53
2023/01/21 03:29:08;;;;;;;42.58;19.67;;;0.60;99.90;;;;;;5048190;28;20115;-51
2023/01/21 03:31:37;;;;;;;42.03;19.60;;;0.60;99.90;;;;;;5052535;28;20020;-54
2023/01/21 03:34:07;;;;;;;42.35;19.48;;;0.60;99.90;;;;;;5040066;28;20017;-51
2023/01/21 03:36:54;;;;;;;40.72;19.70;;;0.60;99.90;;;;;;5044678;28;20025;-53
2023/01/21 03:39:36;;;;;;;45.08;21.88;;;0.60;99.90;;;;;;5052209;28;20029;-51
2023/01/21 03:42:02;;;;;;;44.40;19.88;;;0.60;99.90;;;;;;5051575;28;20042;-51
2023/01/21 03:44:28;;;;;;;40.45;20.55;;;0.60;99.90;;;;;;5051751;28;20031;-52
2023/01/21 03:47:11;;;;;;;48.63;21.85;;;0.60;99.90;;;;;;5049295;28;20100;-51
2023/01/21 03:49:49;;;;;;;44.22;19.20;;;0.60;99.90;;;;;;5063793;28;20482;-52
2023/01/21 03:52:17;;;;;;;43.13;22.20;;;0.60;99.90;;;;;;5069207;28;20025;-52
2023/01/21 03:54:45;;;;;;;51.55;21.38;;;0.60;99.90;;;;;;5039317;28;20068;-51
2023/01/21 03:57:11;;;;;;;48.13;22.83;;;0.60;99.90;;;;;;5041190;28;20029;-53
2023/01/21 03:59:36;;;;;;;52.25;21.98;;;0.60;99.90;;;;;;5041245;28;20023;-53
2023/01/21 04:02:02;;;;;;;53.78;23.60;;;0.60;99.90;;;;;;5041962;28;20107;-51
2023/01/21 04:04:27;;;;;;;44.80;21.45;;;0.60;99.90;;;;;;5040240;28;20215;-51
2023/01/21 04:06:53;;;;;;;47.13;20.35;;;0.60;99.90;;;;;;5042473;28;20049;-53
2023/01/21 04:09:18;;;;;;;46.35;19.90;;;0.60;99.90;;;;;;5040615;28;20717;-50
2023/01/21 04:11:44;;;;;;;45.72;21.05;;;0.60;99.90;;;;;;5042385;28;20022;-52
2023/01/21 04:14:09;;;;;;;49.42;21.27;;;0.60;99.90;;;;;;5041750;28;20060;-53
2023/01/21 04:16:35;;;;;;;42.75;21.13;;;0.50;99.90;;;;;;5043071;28;20044;-54
2023/01/21 04:19:00;;;;;;;43.83;19.67;;;0.40;99.90;;;;;;5048343;28;20084;-53
2023/01/21 04:21:26;;;;;;;42.40;17.80;;;0.40;99.90;;;;;;5041647;28;20021;-51
2023/01/21 04:23:52;;;;;;;45.03;19.65;;;0.40;99.90;;;;;;5039904;28;20469;-52
2023/01/21 04:26:17;;;;;;;44.90;20.08;;;0.40;99.90;;;;;;5041195;28;20053;-53
2023/01/21 04:28:43;;;;;;;46.25;19.95;;;0.40;99.90;;;;;;5041049;28;20325;-52
2023/01/21 04:31:08;;;;;;;40.08;18.38;;;0.30;99.90;;;;;;5039869;28;20048;-53
2023/01/21 04:33:34;;;;;;;44.78;18.45;;;0.30;99.90;;;;;;5038629;28;20390;-51
2023/01/21 04:36:00;;;;;;;39.60;18.75;;;0.30;99.90;;;;;;5030831;28;20245;-51
2023/01/21 04:38:26;;;;;;;40.63;17.42;;;0.20;99.90;;;;;;5030875;28;20024;-50
2023/01/21 04:40:52;;;;;;;36.10;16.48;;;0.20;99.90;;;;;;5029007;28;20213;-54
2023/01/21 04:43:17;;;;;;;32.70;16.40;;;0.20;99.90;;;;;;5029734;28;20033;-51
2023/01/21 04:45:43;;;;;;;34.22;15.02;;;0.20;99.90;;;;;;5030707;28;20021;-51
2023/01/21 04:48:08;;;;;;;36.60;16.05;;;0.20;99.90;;;;;;5055350;28;20032;-52
2023/01/21 04:50:34;;;;;;;39.70;15.45;;;0.20;99.90;;;;;;5070650;28;20028;-51
2023/01/21 04:52:59;;;;;;;36.28;16.40;;;0.20;99.90;;;;;;5070688;28;20386;-52
2023/01/21 04:55:25;;;;;;;34.20;14.75;;;0.20;99.90;;;;;;5070776;28;20022;-53
2023/01/21 04:57:50;;;;;;;33.08;14.00;;;0.30;99.90;;;;;;5070863;28;20029;-54
2023/01/21 05:00:16;;;;;;;27.65;12.63;;;0.30;99.90;;;;;;5070937;28;20043;-52
2023/01/21 05:02:42;;;;;;;34.50;14.40;;;0.20;99.90;;;;;;5070754;28;20570;-53
2023/01/21 05:05:08;;;;;;;28.17;11.57;;;0.20;99.90;;;;;;5070165;28;20028;-52
2023/01/21 05:07:33;;;;;;;30.85;13.13;;;0.20;99.90;;;;;;5071029;28;20025;-54
2023/01/21 05:09:59;;;;;;;26.55;11.10;;;0.10;99.90;;;;;;5071135;28;20430;-54
2023/01/21 05:12:24;;;;;;;27.27;12.13;;;0.10;99.90;;;;;;5070741;28;20035;-53
2023/01/21 05:14:53;;;;;;;26.30;12.25;;;0.00;99.90;;;;;;5070173;28;20523;-52
2023/01/21 05:17:19;;;;;;;28.10;12.05;;;0.10;99.90;;;;;;5054127;28;20628;-51
2023/01/21 05:19:45;;;;;;;26.42;11.75;;;0.10;99.90;;;;;;5063022;28;20090;-54
2023/01/21 05:22:11;;;;;;;29.88;13.82;;;0.00;99.90;;;;;;5052599;28;20502;-51
2023/01/21 05:24:36;;;;;;;34.80;14.00;;;0.10;99.90;;;;;;5040582;28;20378;-52
2023/01/21 05:27:02;;;;;;;38.20;13.77;;;0.00;99.90;;;;;;5038386;28;20567;-50
2023/01/21 05:29:27;;;;;;;26.17;11.52;;;0.00;99.90;;;;;;5038963;28;20029;-49
2023/01/21 05:31:53;;;;;;;29.38;12.75;;;0.00;99.90;;;;;;5039986;28;20025;-50
2023/01/21 05:34:18;;;;;;;29.42;14.48;;;0.10;99.90;;;;;;5039685;28;20168;-50
2023/01/21 05:36:44;;;;;;;31.65;13.50;;;0.00;99.90;;;;;;5037676;28;20033;-50
2023/01/21 05:39:09;;;;;;;30.80;13.60;;;0.10;99.90;;;;;;5040563;28;20013;-51
2023/01/21 05:41:35;;;;;;;36.00;15.30;;;0.10;99.90;;;;;;5038509;28;20030;-50
2023/01/21 05:44:00;;;;;;;28.08;12.90;;;0.10;99.90;;;;;;5039513;28;20043;-50
2023/01/21 05:46:26;;;;;;;31.38;14.23;;;0.10;99.90;;;;;;5037322;28;20035;-50
2023/01/21 05:48:52;;;;;;;30.30;13.75;;;0.10;99.90;;;;;;5051694;28;20045;-50
2023/01/21 05:51:17;;;;;;;26.48;13.20;;;0.00;99.90;;;;;;5029267;28;20059;-51
2023/01/21 05:53:43;;;;;;;33.08;13.13;;;0.00;99.90;;;;;;5034446;28;20021;-50
2023/01/21 05:56:08;;;;;;;29.10;13.48;;;0.00;99.90;;;;;;5037785;28;20391;-51
2023/01/21 05:58:35;;;;;;;30.90;13.48;;;0.00;99.90;;;;;;5039666;28;20017;-50
2023/01/21 06:01:00;;;;;;;32.38;13.35;;;0.00;99.90;;;;;;5039155;28;20472;-50
2023/01/21 06:03:26;;;;;;;30.25;15.25;;;0.00;99.90;;;;;;5039362;28;20036;-50
2023/01/21 06:05:52;;;;;;;28.67;13.27;;;0.00;99.90;;;;;;5038478;28;20029;-51
2023/01/21 06:08:18;;;;;;;33.08;13.60;;;0.00;99.90;;;;;;5037410;28;20032;-50
2023/01/21 06:10:43;;;;;;;33.13;15.10;;;0.10;99.90;;;;;;5035736;28;20025;-51
2023/01/21 06:13:13;;;;;;;30.33;14.15;;;0.10;99.90;;;;;;5040558;28;20036;-54
2023/01/21 06:15:39;;;;;;;31.67;14.23;;;0.10;99.90;;;;;;5031600;28;20449;-54
2023/01/21 06:18:05;;;;;;;35.40;14.27;;;0.10;99.90;;;;;;5052112;28;20054;-52
2023/01/21 06:20:30;;;;;;;31.05;14.23;;;0.20;99.90;;;;;;5068092;28;20020;-53
2023/01/21 06:22:57;;;;;;;34.83;14.45;;;0.20;99.90;;;;;;5069122;28;20385;-51
2023/01/21 06:25:24;;;;;;;32.30;14.55;;;0.20;99.90;;;;;;5068562;28;20099;-53
2023/01/21 06:27:52;;;;;;;37.10;15.63;;;0.20;99.90;;;;;;5068909;28;20035;-50
2023/01/21 06:30:17;;;;;;;36.05;14.32;;;0.20;99.90;;;;;;5068513;28;20740;-50
2023/01/21 06:32:43;;;;;;;30.15;13.35;;;0.20;99.90;;;;;;5048108;28;20105;-52
2023/01/21 06:35:08;;;;;;;26.95;13.30;;;0.20;99.90;;;;;;5037510;28;20027;-50
2023/01/21 06:37:34;;;;;;;34.42;14.60;;;0.20;99.90;;;;;;5039382;28;20036;-52
2023/01/21 06:39:59;;;;;;;32.17;13.00;;;0.20;99.90;;;;;;5037706;28;20096;-51
2023/01/21 06:42:25;;;;;;;28.90;12.52;;;0.20;99.90;;;;;;5032636;28;20360;-52
2023/01/21 06:44:50;;;;;;;33.95;14.18;;;0.30;99.90;;;;;;5028191;28;20068;-51
2023/01/21 06:47:16;;;;;;;30.60;13.15;;;0.30;99.90;;;;;;5043993;28;20028;-54
2023/01/21 06:49:42;;;;;;;28.38;12.32;;;0.30;99.90;;;;;;5047462;28;20017;-54
2023/01/21 06:52:07;;;;;;;35.05;14.35;;;0.20;99.90;;;;;;5041492;28;20059;-55
2023/01/21 06:54:33;;;;;;;27.45;13.25;;;0.30;99.90;;;;;;5044150;28;20033;-51
2023/01/21 06:56:58;;;;;;;29.38;13.65;;;0.30;99.90;;;;;;5052935;28;20021;-51
2023/01/21 06:59:24;;;;;;;31.88;12.80;;;0.30;99.90;;;;;;5060755;28;20237;-51
2023/01/21 07:01:49;;;;;;;28.52;12.13;;;0.30;99.90;;;;;;5058424;28;20020;-51
2023/01/21 07:04:15;;;;;;;29.10;13.45;;;0.30;99.90;;;;;;5051716;28;20453;-51
2023/01/21 07:06:40;;;;;;;27.25;12.80;;;0.30;99.90;;;;;;5064129;28;20031;-51
2023/01/21 07:09:07;;;;;;;31.02;13.15;;;0.30;99.90;;;;;;5053710;28;20028;-50
2023/01/21 07:11:32;;;;;;;31.80;13.63;;;0.30;99.90;;;;;;5059875;28;20028;-52
2023/01/21 07:13:58;;;;;;;33.78;13.52;;;0.30;99.90;;;;;;5042258;28;20067;-53
2023/01/21 07:16:24;;;;;;;30.33;14.75;;;0.30;99.90;;;;;;5042458;28;20107;-54
2023/01/21 07:18:49;;;;;;;33.47;14.32;;;0.30;99.90;;;;;;5043787;28;20048;-53
2023/01/21 07:21:15;;;;;;;28.73;13.05;;;0.40;99.90;;;;;;5042813;28;20082;-53
2023/01/21 07:23:41;;;;;;;28.23;13.48;;;0.40;99.90;;;;;;5063254;28;20115;-51
2023/01/21 07:26:07;;;;;;;31.75;12.93;;;0.30;99.90;;;;;;5056243;28;20032;-54
2023/01/21 07:28:32;;;;;;;32.55;13.07;;;0.40;99.90;;;;;;5056655;28;20482;-54
2023/01/21 07:30:59;;;;;;;29.40;12.95;;;0.40;99.90;;;;;;5063615;28;20483;-54
2023/01/21 07:33:24;;;;;;;31.90;14.63;;;0.40;99.90;;;;;;5049318;28;20032;-52
2023/01/21 07:35:50;;;;;;;29.58;12.98;;;0.40;99.90;;;;;;5044230;28;20033;-52
2023/01/21 07:38:16;;;;;;;30.08;13.65;;;0.40;99.90;;;;;;5040474;28;20128;-55
2023/01/21 07:40:41;;;;;;;32.67;14.30;;;0.40;99.90;;;;;;5041888;28;20099;-52
2023/01/21 07:43:08;;;;;;;27.50;12.73;;;0.40;99.90;;;;;;5046956;28;20031;-51
2023/01/21 07:45:33;;;;;;;25.90;12.05;;;0.40;99.90;;;;;;5063543;28;20042;-48
2023/01/21 07:47:59;;;;;;;29.30;11.70;;;0.40;99.90;;;;;;5056980;28;20024;-51
2023/01/21 07:50:25;;;;;;;30.27;14.30;;;0.40;99.90;;;;;;5043389;28;20095;-48
2023/01/21 07:52:53;;;;;;;34.10;14.63;;;0.40;99.90;;;;;;5036318;28;20541;-48
2023/01/21 07:55:19;;;;;;;32.97;13.80;;;0.40;99.90;;;;;;5037885;28;20277;-49
2023/01/21 07:57:44;;;;;;;36.25;13.77;;;0.30;99.90;;;;;;5036681;28;20504;-49
2023/01/21 08:00:11;;;;;;;29.70;13.73;;;0.30;99.90;;;;;;5037070;28;20021;-49
2023/01/21 08:02:36;;;;;;;30.67;13.77;;;0.40;99.90;;;;;;5037047;28;20052;-49
2023/01/21 08:05:02;;;;;;;31.55;14.40;;;0.40;99.90;;;;;;5037409;28;20045;-50
2023/01/21 08:07:28;;;;;;;36.47;16.05;;;0.40;99.90;;;;;;5038112;28;20053;-51
2023/01/21 08:09:53;;;;;;;38.85;16.13;;;0.30;99.90;;;;;;5046191;28;20478;-50
2023/01/21 08:12:19;;;;;;;29.65;14.93;;;0.40;99.90;;;;;;5047288;28;20524;-50
2023/01/21 08:14:44;;;;;;;35.88;15.13;;;0.40;99.90;;;;;;5047330;28;20556;-50
2023/01/21 08:17:10;;;;;;;30.27;15.13;;;0.40;99.90;;;;;;5053362;28;20021;-51
2023/01/21 08:19:35;;;;;;;36.88;15.07;;;0.50;99.90;;;;;;5064116;28;20025;-50
2023/01/21 08:22:01;;;;;;;32.83;15.07;;;0.50;99.90;;;;;;5072949;28;20074;-51
2023/01/21 08:24:26;;;;;;;36.60;16.35;;;0.50;99.90;;;;;;5072919;28;20108;-51
2023/01/21 08:26:55;;;;;;;40.17;16.63;;;0.50;99.90;;;;;;5072696;28;20028;-49
2023/01/21 08:29:21;;;;;;;41.92;17.42;;;0.60;99.90;;;;;;5072851;28;20025;-50
2023/01/21 08:31:46;;;;;;;39.58;17.83;;;0.60;99.90;;;;;;5054445;28;20040;-50
2023/01/21 08:34:13;;;;;;;41.33;17.02;;;0.50;99.90;;;;;;5051780;28;20424;-51
2023/01/21 08:36:39;;;;;;;37.63;16.33;;;0.60;99.90;;;;;;5051937;28;20025;-52
2023/01/21 08:39:05;;;;;;;33.70;15.35;;;0.60;99.90;;;;;;5052298;28;20144;-51
2023/01/21 08:41:31;;;;;;;37.92;16.52;;;0.60;99.90;;;;;;5035718;28;20479;-51
2023/01/21 08:43:57;;;;;;;34.80;17.00;;;0.70;99.90;;;;;;5045064;28;20416;-52
2023/01/21 08:46:22;;;;;;;35.65;16.55;;;0.70;99.90;;;;;;5043273;28;20167;-54
2023/01/21 08:48:48;;;;;;;34.33;15.70;;;0.70;99.90;;;;;;5062184;28;20079;-53
2023/01/21 08:51:14;;;;;;;40.30;16.17;;;0.80;99.90;;;;;;5070262;28;20115;-53
2023/01/21 08:53:39;;;;;;;35.30;15.52;;;0.90;99.90;;;;;;5070450;28;20024;-52
2023/01/21 08:56:05;;;;;;;36.50;15.18;;;0.90;99.90;;;;;;5069730;28;20022;-49
2023/01/21 08:58:31;;;;;;;38.30;16.30;;;0.90;99.90;;;;;;5070014;28;20020;-52
2023/01/21 09:00:57;;;;;;;31.00;14.05;;;1.00;99.90;;;;;;5070258;28;20104;-52
2023/01/21 09:03:23;;;;;;;34.40;16.23;;;1.00;99.90;;;;;;5069782;28;20120;-52
2023/01/21 09:05:51;;;;;;;40.00;17.10;;;1.00;99.90;;;;;;5069769;28;20020;-49
2023/01/21 09:08:17;;;;;;;35.38;15.35;;;1.10;99.90;;;;;;5070435;28;20017;-50
2023/01/21 09:11:01;;;;;;;30.08;13.32;;;1.10;99.90;;;;;;5070455;28;20036;-54
2023/01/21 09:13:33;;;;;;;37.42;15.05;;;1.20;99.90;;;;;;5070166;28;20512;-50
2023/01/21 09:15:59;;;;;;;32.75;15.00;;;1.30;99.90;;;;;;5059105;28;20489;-50
2023/01/21 09:18:25;;;;;;;29.70;13.85;;;1.40;99.90;;;;;;5058042;28;20108;-51
2023/01/21 09:20:50;;;;;;;30.45;13.50;;;1.40;99.90;;;;;;5070097;28;20092;-52
2023/01/21 09:23:25;;;;;;;38.08;16.38;;;1.50;99.90;;;;;;5070411;28;20074;-52
2023/01/21 09:25:53;;;;;;;30.02;14.68;;;1.50;99.90;;;;;;5069545;28;20025;-52
2023/01/21 09:28:20;;;;;;;31.15;15.18;;;1.60;99.90;;;;;;5070126;28;20028;-51
2023/01/21 09:30:46;;;;;;;31.65;15.15;;;1.70;99.90;;;;;;5069826;28;20024;-54
2023/01/21 09:33:13;;;;;;;34.20;15.02;;;1.70;99.90;;;;;;5069799;28;20032;-53
2023/01/21 09:35:39;;;;;;;31.48;14.75;;;1.80;99.90;;;;;;5069475;28;20028;-52
2023/01/21 09:38:05;;;;;;;31.52;13.85;;;1.80;99.90;;;;;;5069940;28;20016;-51
2023/01/21 09:40:30;;;;;;;34.88;15.75;;;1.80;99.90;;;;;;5070095;28;20333;-51
2023/01/21 09:43:01;;;;;;;34.47;15.90;;;2.00;99.90;;;;;;5069941;28;20054;-53
2023/01/21 09:45:27;;;;;;;31.67;13.95;;;2.00;99.90;;;;;;5067214;28;20029;-52
2023/01/21 09:47:55;;;;;;;32.10;16.02;;;2.10;99.90;;;;;;5051383;28;20048;-53
2023/01/21 09:50:22;;;;;;;30.02;14.60;;;2.20;99.90;;;;;;5067134;28;20545;-49
2023/01/21 09:52:51;;;;;;;30.15;14.18;;;2.30;99.90;;;;;;5069958;28;20028;-51
2023/01/21 09:55:20;;;;;;;31.40;15.07;;;2.40;99.90;;;;;;5068954;28;20112;-52
2023/01/21 09:58:15;;;;;;;27.20;14.10;;;2.40;99.90;;;;;;5068037;28;20366;-53
2023/01/21 10:01:06;;;;;;;32.80;15.65;;;2.40;99.90;;;;;;5060146;28;20346;-52
2023/01/21 10:03:40;;;;;;;28.75;14.00;;;2.50;99.90;;;;;;5069025;28;20027;-52
2023/01/21 10:06:20;;;;;;;28.90;13.27;;;2.40;99.90;;;;;;5069212;28;20112;-53
2023/01/21 10:09:03;;;;;;;31.25;13.38;;;2.40;99.90;;;;;;5069241;28;20609;-50
2023/01/21 10:12:14;;;;;;;25.92;12.52;;;2.60;99.90;;;;;;5067852;28;20607;-52
2023/01/21 10:15:00;;;;;;;28.40;13.75;;;2.80;99.90;;;;;;5068769;28;20032;-49
2023/01/21 10:17:43;;;;;;;25.67;12.77;;;2.90;99.90;;;;;;5052595;28;20025;-51
2023/01/21 10:20:15;;;;;;;25.17;12.15;;;3.10;99.90;;;;;;5063322;28;20031;-53
2023/01/21 10:22:49;;;;;;;23.30;12.20;;;3.20;99.90;;;;;;5069095;28;20028;-52
2023/01/21 10:25:23;;;;;;;25.88;13.07;;;3.20;99.90;;;;;;5068583;28;20413;-53
2023/01/21 10:27:48;;;;;;;23.80;12.45;;;3.30;99.90;;;;;;5069255;28;20488;-51
2023/01/21 10:30:30;;;;;;;24.80;12.73;;;3.40;99.90;;;;;;5067396;28;20028;-50
2023/01/21 10:32:55;;;;;;;25.08;12.30;;;3.40;99.90;;;;;;5066965;28;20020;-51
2023/01/21 10:35:37;;;;;;;26.15;12.00;;;3.40;99.90;;;;;;5066890;28;20115;-49
2023/01/21 10:38:15;;;;;;;21.20;11.73;;;3.50;99.90;;;;;;5068565;28;20111;-52
2023/01/21 10:40:54;;;;;;;26.63;13.18;;;3.50;99.90;;;;;;5068834;28;20047;-52
2023/01/21 10:43:31;;;;;;;23.23;12.00;;;3.50;99.90;;;;;;5069019;28;20024;-52
2023/01/21 10:46:23;;;;;;;23.40;12.77;;;3.50;99.90;;;;;;5057557;28;20525;-53
2023/01/21 10:49:03;;;;;;;22.33;11.45;;;3.60;99.90;;;;;;5050076;28;20044;-49
2023/01/21 10:51:37;;;;;;;25.23;13.18;;;3.70;99.90;;;;;;5048624;28;20435;-48
2023/01/21 10:54:11;;;;;;;27.25;13.20;;;3.60;99.90;;;;;;5048832;28;20025;-50
2023/01/21 10:56:46;;;;;;;23.90;12.60;;;3.90;99.90;;;;;;5048005;28;20032;-51
2023/01/21 10:59:20;;;;;;;24.00;11.82;;;4.10;99.90;;;;;;5048458;28;20032;-50
2023/01/21 11:01:49;;;;;;;25.73;12.90;;;4.90;99.90;;;;;;5048382;28;20029;-52
2023/01/21 11:04:23;;;;;;;20.45;11.30;;;5.80;99.90;;;;;;5048317;28;20056;-50
2023/01/21 11:06:59;;;;;;;20.25;10.75;;;6.60;99.90;;;;;;5048330;28;20032;-51
2023/01/21 11:09:28;;;;;;;19.83;10.65;;;6.80;99.90;;;;;;5048570;28;20024;-51
2023/01/21 11:11:53;;;;;;;18.65;11.20;;;6.70;99.90;;;;;;5048462;28;20025;-52
2023/01/21 11:14:19;;;;;;;16.90;10.88;;;6.70;99.90;;;;;;5048342;28;20025;-49
2023/01/21 11:16:47;;;;;;;20.58;11.00;;;6.60;99.90;;;;;;5045098;28;20476;-48
2023/01/21 11:19:16;;;;;;;21.52;11.68;;;6.70;99.90;;;;;;5059896;28;20016;-52
2023/01/21 11:22:03;;;;;;;17.52;10.35;;;6.50;99.90;;;;;;5067135;28;20071;-51
2023/01/21 11:24:50;;;;;;;22.58;10.27;;;6.50;99.90;;;;;;5068435;28;20025;-51
2023/01/21 11:27:21;;;;;;;18.88;10.85;;;6.20;99.90;;;;;;5066671;28;20539;-52
2023/01/21 11:29:49;;;;;;;20.48;10.98;;;5.80;99.90;;;;;;5068831;28;20032;-53
2023/01/21 11:32:26;;;;;;;19.25;11.23;;;5.50;99.90;;;;;;5068032;28;20071;-53
2023/01/21 11:35:07;;;;;;;24.50;12.50;;;5.40;99.90;;;;;;5067837;28;20440;-53
2023/01/21 11:37:35;;;;;;;25.13;11.77;;;5.10;99.90;;;;;;5068450;28;20020;-54
2023/01/21 11:40:24;;;;;;;22.35;11.75;;;5.10;99.90;;;;;;5066881;28;20104;-53
2023/01/21 11:42:54;;;;;;;22.45;12.27;;;5.20;99.90;;;;;;5068349;28;20033;-53
2023/01/21 11:45:28;;;;;;;;;;;5.50;99.90;;;;;;5067824;28;20152;-53
2023/01/21 11:47:54;;;;;;;23.67;12.48;;;6.00;99.90;;;;;;5050257;28;19913;-52
2023/01/21 11:50:38;;;;;;;22.00;13.30;;;6.40;99.90;;;;;;5066137;28;20040;-51
2023/01/21 11:53:07;;;;;;;26.48;13.32;;;6.30;99.90;;;;;;5071824;28;20021;-53
2023/01/21 11:55:47;;;;;;;24.98;11.55;;;6.30;99.90;;;;;;5071522;28;20368;-50
2023/01/21 11:58:16;;;;;;;21.80;12.40;;;6.50;99.90;;;;;;5071657;28;20023;-53
2023/01/21 12:00:45;;;;;;;26.58;13.77;;;6.30;99.90;;;;;;5072080;28;20111;-51
2023/01/21 12:03:16;;;;;;;21.48;11.93;;;6.30;99.90;;;;;;5071873;28;20017;-51
2023/01/21 12:05:52;;;;;;;22.65;12.32;;;6.20;99.90;;;;;;5071163;28;20028;-52
2023/01/21 12:08:22;;;;;;;22.05;12.15;;;5.90;99.90;;;;;;5071943;28;20024;-51
2023/01/21 12:10:53;;;;;;;20.50;11.43;;;5.70;99.90;;;;;;5071224;28;20486;-51
2023/01/21 12:13:22;;;;;;;;;;;5.40;99.90;;;;;;5072090;28;20031;-48
2023/01/21 12:16:20;;;;;;;22.38;11.57;;;5.20;99.90;;;;;;5061860;28;19905;-50
2023/01/21 12:19:19;;;;;;;24.38;12.50;;;5.10;99.90;;;;;;5052419;28;20131;-51
2023/01/21 12:22:05;;;;;;;23.98;11.48;;;4.80;99.90;;;;;;5051706;28;20035;-55
2023/01/21 12:24:45;;;;;;;24.30;11.90;;;4.70;99.90;;;;;;5051504;28;20045;-49
2023/01/21 12:27:35;;;;;;;29.60;13.32;;;4.60;99.90;;;;;;5050120;28;20040;-49
2023/01/21 12:30:13;;;;;;;26.40;13.07;;;4.50;99.90;;;;;;5051536;28;20024;-49
2023/01/21 12:32:43;;;;;;;23.15;11.20;;;4.50;99.90;;;;;;5051253;28;20698;-54
2023/01/21 12:35:11;;;;;;;;;;;4.40;99.90;;;;;;5051079;28;20017;-50
2023/01/21 12:37:47;;;;;;;29.55;13.18;;;4.20;99.90;;;;;;5049975;28;20461;-50
2023/01/21 12:40:28;;;;;;;32.40;14.60;;;4.10;99.90;;;;;;5051557;28;20438;-50
2023/01/21 12:42:56;;;;;;;;;;;4.10;99.90;;;;;;5051586;28;20060;-49
2023/01/21 12:45:27;;;;;;;29.23;14.25;;;4.10;99.90;;;;;;5031769;28;19965;-50
2023/01/21 12:47:55;;;;;;;29.10;13.90;;;4.00;99.90;;;;;;5052914;28;20021;-51
2023/01/21 12:50:27;;;;;;;27.80;14.32;;;4.10;99.90;;;;;;5067811;28;20448;-53
2023/01/21 12:53:07;;;;;;;29.80;14.60;;;4.10;99.90;;;;;;5070850;28;20024;-51
2023/01/21 12:55:42;;;;;;;28.35;13.40;;;4.10;99.90;;;;;;5070442;28;20036;-52
2023/01/21 12:58:13;;;;;;;30.45;13.95;;;4.10;99.90;;;;;;5070513;28;20028;-52